Time;durP1;ratioP1;P1;durP2;ratioP2;P2;SDS_P1;SDS_P2;PMS_P1;PMS_P2;Temp;Humidity;BMP_temperature;BMP_pressure;BME280_temperature;BME280_humidity;BME280_pressure;Samples;Min_cycle;Max_cycle;Signal;HPM_P1;HPM_P2
2023/11/22 00:00:13;;;;;;;17.65;9.73;;;6.70;99.90;;;;;;5040643;28;20066;-67
2023/11/22 00:02:40;;;;;;;17.75;9.98;;;6.70;99.90;;;;;;5044051;28;20037;-68
2023/11/22 00:05:13;;;;;;;15.32;10.50;;;6.70;99.90;;;;;;5070999;28;20033;-67
2023/11/22 00:07:45;;;;;;;18.10;10.32;;;6.70;99.90;;;;;;5047840;28;20055;-68
2023/11/22 00:10:17;;;;;;;18.90;9.88;;;6.70;99.90;;;;;;5035644;28;20032;-67
2023/11/22 00:12:50;;;;;;;14.25;9.93;;;6.80;99.90;;;;;;5049841;28;20052;-66
2023/11/22 00:15:22;;;;;;;21.05;10.43;;;6.70;99.90;;;;;;5036799;28;20524;-67
2023/11/22 00:17:54;;;;;;;17.52;10.55;;;6.70;99.90;;;;;;5056147;28;20129;-66
2023/11/22 00:20:26;;;;;;;18.13;10.57;;;6.70;99.90;;;;;;5055992;28;20050;-67
2023/11/22 00:22:52;;;;;;;18.98;10.30;;;6.70;99.90;;;;;;5053232;28;20032;-67
2023/11/22 00:25:24;;;;;;;18.83;10.68;;;6.70;99.90;;;;;;5065514;28;20920;-68
2023/11/22 00:27:51;;;;;;;20.30;11.02;;;6.70;99.90;;;;;;5055168;28;20033;-66
2023/11/22 00:30:23;;;;;;;19.40;10.00;;;6.70;99.90;;;;;;5040558;28;20045;-67
2023/11/22 00:32:56;;;;;;;16.70;9.63;;;6.70;99.90;;;;;;5050717;28;20116;-67
2023/11/22 00:35:29;;;;;;;29.77;10.02;;;6.70;99.90;;;;;;5072022;28;20130;-67
2023/11/22 00:38:01;;;;;;;19.52;9.27;;;6.70;99.90;;;;;;5050385;28;20072;-67
2023/11/22 00:40:33;;;;;;;16.77;9.65;;;6.60;99.90;;;;;;5040649;28;20136;-68
2023/11/22 00:43:00;;;;;;;15.65;8.40;;;6.60;99.90;;;;;;5058730;28;20051;-67
2023/11/22 00:45:32;;;;;;;16.55;8.57;;;6.60;99.90;;;;;;5042406;28;20049;-67
2023/11/22 00:48:04;;;;;;;19.35;8.82;;;6.60;99.90;;;;;;5059093;28;20408;-67
2023/11/22 00:50:36;;;;;;;14.15;9.48;;;6.60;99.90;;;;;;5073091;28;20051;-68
2023/11/22 00:53:09;;;;;;;16.05;9.25;;;6.60;99.90;;;;;;5043001;28;20520;-66
2023/11/22 00:55:36;;;;;;;15.95;9.95;;;6.60;99.90;;;;;;5070201;28;20401;-67
2023/11/22 00:58:09;;;;;;;16.30;9.40;;;6.60;99.90;;;;;;5043303;28;20052;-67
2023/11/22 01:00:36;;;;;;;15.88;8.80;;;6.70;99.90;;;;;;5047905;28;20132;-67
2023/11/22 01:03:11;;;;;;;18.25;9.43;;;6.70;99.90;;;;;;5051994;28;20049;-67
2023/11/22 01:05:43;;;;;;;16.60;8.88;;;6.70;99.90;;;;;;5043249;28;20052;-67
2023/11/22 01:08:15;;;;;;;17.05;9.10;;;6.70;99.90;;;;;;5047900;28;20041;-68
2023/11/22 01:10:47;;;;;;;18.42;9.57;;;6.70;99.90;;;;;;5030210;28;20052;-67
2023/11/22 01:13:19;;;;;;;16.65;9.27;;;6.70;99.90;;;;;;5053216;28;20131;-67
2023/11/22 01:15:51;;;;;;;16.77;9.43;;;6.70;99.90;;;;;;5045097;28;20095;-67
2023/11/22 01:18:23;;;;;;;13.43;8.52;;;6.70;99.90;;;;;;5058274;28;20076;-68
2023/11/22 01:20:55;;;;;;;17.85;8.70;;;6.70;99.90;;;;;;5039475;28;20508;-66
2023/11/22 01:23:27;;;;;;;15.15;8.00;;;6.70;99.90;;;;;;5055530;28;20041;-66
2023/11/22 01:26:00;;;;;;;13.02;8.73;;;6.60;99.90;;;;;;5053622;28;20037;-65
2023/11/22 01:28:35;;;;;;;18.73;9.87;;;6.60;99.90;;;;;;5054264;28;20436;-66
2023/11/22 01:31:07;;;;;;;15.40;8.77;;;6.60;99.90;;;;;;5060306;28;20050;-66
2023/11/22 01:33:40;;;;;;;14.68;8.73;;;6.70;99.90;;;;;;5064050;28;20037;-68
2023/11/22 01:36:12;;;;;;;22.55;9.90;;;6.60;99.90;;;;;;5050015;28;20037;-67
2023/11/22 01:38:44;;;;;;;14.18;9.18;;;6.60;99.90;;;;;;5051110;28;20044;-66
2023/11/22 01:41:13;;;;;;;17.95;9.10;;;6.60;99.90;;;;;;5070075;28;20060;-66
2023/11/22 01:43:46;;;;;;;19.02;8.35;;;6.70;99.90;;;;;;5052371;28;20117;-66
2023/11/22 01:46:25;;;;;;;14.73;8.57;;;6.70;99.90;;;;;;5054379;28;20059;-66
2023/11/22 01:48:57;;;;;;;9.43;6.32;;;6.70;99.90;;;;;;5075242;28;20043;-66
2023/11/22 01:51:30;;;;;;;7.15;5.40;;;6.60;99.90;;;;;;5059920;28;20049;-66
2023/11/22 01:54:02;;;;;;;8.32;5.20;;;6.60;99.90;;;;;;5058771;28;20083;-66
2023/11/22 01:56:37;;;;;;;6.47;4.83;;;6.50;99.90;;;;;;5075696;28;20051;-66
2023/11/22 01:59:04;;;;;;;5.50;3.95;;;6.50;99.90;;;;;;5053674;28;20048;-67
2023/11/22 02:01:31;;;;;;;4.88;3.92;;;6.40;99.90;;;;;;5051691;28;20088;-66
2023/11/22 02:03:58;;;;;;;5.63;3.75;;;6.30;99.90;;;;;;5050879;28;20692;-66
2023/11/22 02:06:31;;;;;;;5.35;4.40;;;6.30;99.90;;;;;;5039632;28;20047;-66
2023/11/22 02:09:03;;;;;;;4.93;4.22;;;6.20;99.90;;;;;;5070001;28;20032;-66
2023/11/22 02:11:30;;;;;;;5.95;4.15;;;6.20;99.90;;;;;;5050826;28;20490;-65
2023/11/22 02:13:56;;;;;;;5.95;4.35;;;6.10;99.90;;;;;;5051960;28;20071;-66
2023/11/22 02:16:28;;;;;;;5.47;4.55;;;6.10;99.90;;;;;;5058193;28;20060;-66
2023/11/22 02:18:55;;;;;;;6.93;5.13;;;6.00;99.90;;;;;;5053311;28;20037;-66
2023/11/22 02:21:27;;;;;;;5.75;4.78;;;6.00;99.90;;;;;;5055415;28;20049;-66
2023/11/22 02:23:59;;;;;;;6.30;5.10;;;5.90;99.90;;;;;;5043417;28;20040;-65
2023/11/22 02:26:31;;;;;;;6.65;5.22;;;5.80;99.90;;;;;;5054669;28;20045;-66
2023/11/22 02:29:06;;;;;;;6.22;5.15;;;5.80;99.90;;;;;;5055441;28;20040;-66
2023/11/22 02:31:42;;;;;;;8.43;5.38;;;5.70;99.90;;;;;;5063271;28;20044;-66
2023/11/22 02:34:15;;;;;;;6.57;4.97;;;5.70;99.90;;;;;;5061257;28;20041;-66
2023/11/22 02:36:48;;;;;;;6.93;5.22;;;5.70;99.90;;;;;;5046423;28;20444;-66
2023/11/22 02:39:20;;;;;;;7.33;5.53;;;5.60;99.90;;;;;;5034807;28;20058;-66
2023/11/22 02:41:53;;;;;;;7.20;5.40;;;5.60;99.90;;;;;;5054567;28;20045;-66
2023/11/22 02:44:20;;;;;;;6.70;5.07;;;5.50;99.90;;;;;;5054145;28;20127;-66
2023/11/22 02:46:52;;;;;;;6.05;5.07;;;5.40;99.90;;;;;;5063926;28;20033;-67
2023/11/22 02:49:25;;;;;;;6.60;4.80;;;5.40;99.90;;;;;;5054292;28;20497;-66
2023/11/22 02:51:57;;;;;;;6.22;4.65;;;5.40;99.90;;;;;;5063110;28;20055;-66
2023/11/22 02:54:29;;;;;;;6.20;4.68;;;5.30;99.90;;;;;;5045448;28;20051;-66
2023/11/22 02:57:00;;;;;;;5.47;4.30;;;5.30;99.90;;;;;;5063186;28;20045;-66
2023/11/22 02:59:32;;;;;;;5.72;4.22;;;5.30;99.90;;;;;;5055073;28;20049;-66
2023/11/22 03:02:05;;;;;;;6.22;4.82;;;5.30;99.90;;;;;;5043847;28;20041;-66
2023/11/22 03:04:38;;;;;;;7.38;4.22;;;5.20;99.90;;;;;;5055480;28;20504;-66
2023/11/22 03:07:10;;;;;;;5.22;3.88;;;5.20;99.90;;;;;;5060550;28;20047;-66
2023/11/22 03:09:44;;;;;;;5.47;4.10;;;5.20;99.90;;;;;;5037006;28;20524;-66
2023/11/22 03:12:18;;;;;;;4.82;4.10;;;5.20;99.90;;;;;;5052489;28;20037;-66
2023/11/22 03:14:50;;;;;;;5.47;4.20;;;5.10;99.90;;;;;;5059460;28;20044;-66
2023/11/22 03:17:22;;;;;;;5.13;4.18;;;5.10;99.90;;;;;;5044923;28;20045;-66
2023/11/22 03:19:57;;;;;;;4.30;3.30;;;5.10;99.90;;;;;;5043178;28;20040;-66
2023/11/22 03:22:29;;;;;;;4.95;3.92;;;5.00;99.90;;;;;;5043036;28;20394;-66
2023/11/22 03:25:03;;;;;;;6.18;4.18;;;5.00;99.90;;;;;;5057762;28;20040;-66
2023/11/22 03:27:30;;;;;;;7.63;4.07;;;5.00;99.90;;;;;;5061502;28;20123;-66
2023/11/22 03:30:04;;;;;;;7.80;4.20;;;4.90;99.90;;;;;;5060400;28;20037;-67
2023/11/22 03:32:31;;;;;;;5.40;3.72;;;4.90;99.90;;;;;;5056886;28;20123;-66
2023/11/22 03:35:05;;;;;;;6.20;4.78;;;4.90;99.90;;;;;;5051883;28;20049;-66
2023/11/22 03:37:37;;;;;;;7.40;4.82;;;4.90;99.90;;;;;;5051570;28;20294;-66
2023/11/22 03:40:09;;;;;;;6.10;4.70;;;4.90;99.90;;;;;;5052877;28;20408;-66
2023/11/22 03:42:41;;;;;;;6.47;5.00;;;4.90;99.90;;;;;;5046415;28;20517;-66
2023/11/22 03:45:09;;;;;;;5.53;4.43;;;4.80;99.90;;;;;;5050096;28;20129;-66
2023/11/22 03:47:37;;;;;;;8.48;5.05;;;4.80;99.90;;;;;;5056979;28;20409;-66
2023/11/22 03:50:06;;;;;;;7.30;5.30;;;4.80;99.90;;;;;;5058564;28;20119;-67
2023/11/22 03:52:38;;;;;;;6.35;4.80;;;4.80;99.90;;;;;;5050886;28;20049;-66
2023/11/22 03:55:10;;;;;;;7.70;5.10;;;4.80;99.90;;;;;;5046660;28;20045;-66
2023/11/22 03:57:37;;;;;;;8.68;6.07;;;4.70;99.90;;;;;;5057528;28;20041;-66
2023/11/22 04:00:09;;;;;;;11.07;7.95;;;4.70;99.90;;;;;;5055653;28;20048;-66
2023/11/22 04:02:41;;;;;;;9.35;6.68;;;4.70;99.90;;;;;;5057714;28;20344;-66
2023/11/22 04:05:13;;;;;;;7.40;5.45;;;4.60;99.90;;;;;;5061704;28;20115;-66
2023/11/22 04:07:45;;;;;;;8.43;5.90;;;4.60;99.90;;;;;;5065157;28;20033;-66
2023/11/22 04:10:19;;;;;;;8.05;5.47;;;4.60;99.90;;;;;;5048841;28;20041;-66
2023/11/22 04:12:50;;;;;;;8.82;6.07;;;4.60;99.90;;;;;;5049790;28;20047;-66
2023/11/22 04:15:23;;;;;;;8.40;5.82;;;4.50;99.90;;;;;;5050125;28;20060;-66
2023/11/22 04:17:49;;;;;;;7.85;5.63;;;4.50;99.90;;;;;;5046347;28;20042;-66
2023/11/22 04:20:22;;;;;;;7.97;6.13;;;4.50;99.90;;;;;;5052650;28;20041;-66
2023/11/22 04:22:54;;;;;;;8.87;6.50;;;4.50;99.90;;;;;;5059428;28;20056;-66
2023/11/22 04:25:27;;;;;;;9.73;5.85;;;4.50;99.90;;;;;;5057143;28;20112;-66
2023/11/22 04:27:59;;;;;;;9.73;5.43;;;4.50;99.90;;;;;;5060648;28;20043;-67
2023/11/22 04:30:31;;;;;;;9.35;5.47;;;4.50;99.90;;;;;;5045084;28;20063;-67
2023/11/22 04:33:03;;;;;;;8.98;5.80;;;4.50;99.90;;;;;;5052103;28;20791;-66
2023/11/22 04:35:34;;;;;;;11.32;6.43;;;4.50;99.90;;;;;;5053659;28;20071;-66
2023/11/22 04:38:05;;;;;;;12.65;6.47;;;4.50;99.90;;;;;;5055820;28;20044;-66
2023/11/22 04:40:37;;;;;;;14.55;6.90;;;4.50;99.90;;;;;;5062962;28;20076;-66
2023/11/22 04:43:09;;;;;;;9.73;6.32;;;4.50;99.90;;;;;;5042289;28;20045;-66
2023/11/22 04:45:41;;;;;;;8.73;5.60;;;4.50;99.90;;;;;;5053544;28;20051;-66
2023/11/22 04:48:15;;;;;;;9.43;6.18;;;4.50;99.90;;;;;;5054716;28;20118;-66
2023/11/22 04:50:47;;;;;;;9.95;5.90;;;4.40;99.90;;;;;;5065241;28;20037;-67
2023/11/22 04:53:19;;;;;;;9.50;6.05;;;4.40;99.90;;;;;;5050944;28;20045;-67
2023/11/22 04:55:51;;;;;;;8.05;5.97;;;4.40;99.90;;;;;;5055794;28;20036;-66
2023/11/22 04:58:23;;;;;;;11.73;6.35;;;4.40;99.90;;;;;;5058212;28;20416;-66
2023/11/22 05:00:56;;;;;;;9.07;6.22;;;4.70;99.90;;;;;;5057129;28;20036;-66
2023/11/22 05:03:28;;;;;;;8.90;5.78;;;4.60;99.90;;;;;;5055736;28;20526;-67
2023/11/22 05:05:55;;;;;;;10.07;6.13;;;4.60;99.90;;;;;;5064750;28;20028;-68
2023/11/22 05:08:27;;;;;;;10.57;6.80;;;4.50;99.90;;;;;;5049295;28;20041;-67
2023/11/22 05:10:59;;;;;;;10.05;6.07;;;4.50;99.90;;;;;;5056058;28;20041;-67
2023/11/22 05:13:26;;;;;;;12.07;7.57;;;4.50;99.90;;;;;;5046982;28;20136;-66
2023/11/22 05:15:58;;;;;;;11.75;7.30;;;4.40;99.90;;;;;;5056092;28;20045;-66
2023/11/22 05:18:29;;;;;;;12.30;6.95;;;4.40;99.90;;;;;;5047421;28;20057;-66
2023/11/22 05:21:05;;;;;;;14.80;7.35;;;4.30;99.90;;;;;;5055507;28;20120;-67
2023/11/22 05:23:37;;;;;;;13.15;8.07;;;4.30;99.90;;;;;;5041925;28;20488;-67
2023/11/22 05:26:09;;;;;;;12.82;7.35;;;4.20;99.90;;;;;;5062050;28;20060;-67
2023/11/22 05:28:41;;;;;;;12.65;6.88;;;4.20;99.90;;;;;;5058011;28;20056;-66
2023/11/22 05:31:08;;;;;;;13.50;8.18;;;4.20;99.90;;;;;;5058704;28;20037;-66
2023/11/22 05:33:40;;;;;;;16.90;9.82;;;4.10;99.90;;;;;;5055359;28;20501;-66
2023/11/22 05:36:12;;;;;;;14.38;8.52;;;4.10;99.90;;;;;;5052715;28;20424;-67
2023/11/22 05:38:45;;;;;;;13.60;7.82;;;4.10;99.90;;;;;;5056011;28;20083;-66
2023/11/22 05:41:16;;;;;;;15.55;9.00;;;4.00;99.90;;;;;;5057166;28;20041;-66
2023/11/22 05:43:49;;;;;;;14.68;8.60;;;4.00;99.90;;;;;;5044441;28;20034;-66
2023/11/22 05:46:24;;;;;;;14.43;8.48;;;4.00;99.90;;;;;;5049959;28;20135;-67
2023/11/22 05:48:56;;;;;;;13.52;8.48;;;3.90;99.90;;;;;;5049428;28;20047;-67
2023/11/22 05:51:28;;;;;;;14.40;8.77;;;3.90;99.90;;;;;;5055011;28;20056;-67
2023/11/22 05:54:00;;;;;;;17.10;9.35;;;3.90;99.90;;;;;;5051602;28;20040;-66
2023/11/22 05:56:32;;;;;;;10.95;7.20;;;3.90;99.90;;;;;;5070685;28;20056;-66
2023/11/22 05:59:04;;;;;;;16.45;8.35;;;3.90;99.90;;;;;;5055276;28;20064;-67
2023/11/22 06:01:36;;;;;;;15.23;8.73;;;3.90;99.90;;;;;;5058617;28;20048;-66
2023/11/22 06:04:09;;;;;;;13.48;7.88;;;3.80;99.90;;;;;;5058506;28;20116;-66
2023/11/22 06:06:41;;;;;;;17.60;9.93;;;3.80;99.90;;;;;;5030284;28;20559;-66
2023/11/22 06:09:14;;;;;;;14.60;7.78;;;3.80;99.90;;;;;;5048575;28;20033;-66
2023/11/22 06:11:46;;;;;;;11.85;7.95;;;3.80;99.90;;;;;;5065805;28;20044;-66
2023/11/22 06:14:19;;;;;;;13.93;8.05;;;3.80;99.90;;;;;;5051268;28;20539;-66
2023/11/22 06:16:46;;;;;;;11.27;7.35;;;3.70;99.90;;;;;;5050483;28;20038;-66
2023/11/22 06:19:18;;;;;;;10.23;7.20;;;3.60;99.90;;;;;;5055236;28;20041;-66
2023/11/22 06:21:49;;;;;;;12.20;7.47;;;3.50;99.90;;;;;;5057954;28;20048;-66
2023/11/22 06:24:21;;;;;;;11.45;7.53;;;3.40;99.90;;;;;;5066424;28;20059;-66
2023/11/22 06:26:53;;;;;;;14.57;7.53;;;3.40;99.90;;;;;;5059156;28;20072;-66
2023/11/22 06:29:25;;;;;;;11.02;7.53;;;3.40;99.90;;;;;;5060922;28;20032;-66
2023/11/22 06:31:57;;;;;;;11.93;7.20;;;3.30;99.90;;;;;;5060468;28;20053;-66
2023/11/22 06:34:24;;;;;;;14.38;7.55;;;3.30;99.90;;;;;;5057568;28;20098;-66
2023/11/22 06:36:56;;;;;;;10.60;7.25;;;3.30;99.90;;;;;;5060830;28;20420;-66
2023/11/22 06:39:25;;;;;;;10.70;6.30;;;3.30;99.90;;;;;;5065271;28;20064;-66
2023/11/22 06:41:56;;;;;;;;;;;3.30;99.90;;;;;;5049039;28;20045;-66
2023/11/22 06:44:28;;;;;;;11.40;6.75;;;3.30;99.90;;;;;;5053822;28;19928;-66
2023/11/22 06:47:00;;;;;;;11.73;7.25;;;3.30;99.90;;;;;;5058288;28;20033;-66
2023/11/22 06:49:32;;;;;;;9.23;6.28;;;3.30;99.90;;;;;;5053712;28;20051;-67
2023/11/22 06:52:00;;;;;;;9.90;6.40;;;3.30;99.90;;;;;;5049701;28;20068;-67
2023/11/22 06:54:27;;;;;;;10.23;6.15;;;3.30;99.90;;;;;;5056839;28;20491;-68
2023/11/22 06:56:59;;;;;;;10.27;6.60;;;3.20;99.90;;;;;;5057128;28;20788;-66
2023/11/22 06:59:26;;;;;;;9.70;6.05;;;3.20;99.90;;;;;;5055675;28;20065;-66
2023/11/22 07:01:53;;;;;;;8.85;6.07;;;3.20;99.90;;;;;;5055400;28;20124;-66
2023/11/22 07:04:24;;;;;;;8.75;6.18;;;3.10;99.90;;;;;;5059138;28;20048;-66
2023/11/22 07:06:56;;;;;;;9.30;5.90;;;3.10;99.90;;;;;;5059130;28;20026;-67
2023/11/22 07:09:28;;;;;;;12.20;6.25;;;3.10;99.90;;;;;;5053274;28;20048;-66
2023/11/22 07:11:57;;;;;;;11.98;7.32;;;3.20;99.90;;;;;;5056047;28;20041;-66
2023/11/22 07:14:29;;;;;;;10.93;7.05;;;3.20;99.90;;;;;;5050501;28;20053;-66
2023/11/22 07:17:01;;;;;;;10.25;6.88;;;3.10;99.90;;;;;;5035426;28;20044;-66
2023/11/22 07:19:37;;;;;;;10.40;6.47;;;3.10;99.90;;;;;;5050018;28;20049;-67
2023/11/22 07:22:15;;;;;;;9.70;6.18;;;3.10;99.90;;;;;;5073913;28;20072;-66
2023/11/22 07:24:50;;;;;;;9.35;6.53;;;3.10;99.90;;;;;;5062404;28;20051;-67
2023/11/22 07:27:18;;;;;;;9.38;5.95;;;3.10;99.90;;;;;;5053844;28;20482;-67
2023/11/22 07:29:52;;;;;;;9.73;6.77;;;3.00;99.90;;;;;;5057118;28;20052;-66
2023/11/22 07:32:23;;;;;;;8.57;6.45;;;3.10;99.90;;;;;;5058928;28;20053;-67
2023/11/22 07:34:55;;;;;;;10.50;6.18;;;3.00;99.90;;;;;;5057154;28;20129;-66
2023/11/22 07:37:27;;;;;;;10.18;6.20;;;3.00;99.90;;;;;;5076027;28;20432;-67
2023/11/22 07:40:00;;;;;;;9.10;6.53;;;2.90;99.90;;;;;;5058188;28;20041;-67
2023/11/22 07:42:33;;;;;;;16.65;10.77;;;3.00;99.90;;;;;;5052658;28;20585;-67
2023/11/22 07:45:06;;;;;;;14.73;9.75;;;3.00;99.90;;;;;;5078377;28;20448;-67
2023/11/22 07:47:43;;;;;;;12.67;8.20;;;3.00;99.90;;;;;;5053796;28;20044;-67
2023/11/22 07:50:15;;;;;;;11.93;8.57;;;3.00;99.90;;;;;;5055178;28;20063;-67
2023/11/22 07:52:48;;;;;;;12.38;7.35;;;3.00;99.90;;;;;;5046572;28;20501;-66
2023/11/22 07:55:21;;;;;;;16.52;10.38;;;3.00;99.90;;;;;;5055677;28;20496;-66
2023/11/22 07:57:55;;;;;;;28.47;17.03;;;3.00;99.90;;;;;;5051211;28;20075;-67
2023/11/22 08:00:29;;;;;;;12.27;8.25;;;3.10;99.90;;;;;;5056918;28;20037;-67
2023/11/22 08:03:02;;;;;;;50.50;26.00;;;2.90;99.90;;;;;;5054010;28;20083;-67
2023/11/22 08:05:34;;;;;;;12.57;8.15;;;3.00;99.90;;;;;;5059361;28;20100;-67
2023/11/22 08:08:06;;;;;;;14.63;7.47;;;3.00;99.90;;;;;;5055132;28;20054;-67
2023/11/22 08:10:38;;;;;;;11.63;7.63;;;2.90;99.90;;;;;;5055826;28;20041;-67
2023/11/22 08:13:10;;;;;;;12.57;7.82;;;2.90;99.90;;;;;;5055224;28;20045;-67
2023/11/22 08:15:42;;;;;;;11.80;8.23;;;2.90;99.90;;;;;;5053380;28;20064;-67
2023/11/22 08:18:16;;;;;;;13.45;9.73;;;2.90;99.90;;;;;;5054812;28;20032;-67
2023/11/22 08:20:47;;;;;;;14.38;9.93;;;2.90;99.90;;;;;;5048434;28;20042;-67
2023/11/22 08:23:20;;;;;;;12.30;9.25;;;3.00;99.90;;;;;;5054334;28;20041;-67
2023/11/22 08:25:52;;;;;;;9.80;7.10;;;3.00;99.90;;;;;;5054881;28;20060;-66
2023/11/22 08:28:20;;;;;;;14.98;10.13;;;3.00;99.90;;;;;;5061954;28;20048;-66
2023/11/22 08:30:53;;;;;;;15.27;9.25;;;3.00;99.90;;;;;;5056853;28;20098;-67
2023/11/22 08:33:24;;;;;;;13.88;10.13;;;3.00;99.90;;;;;;5052851;28;20420;-70
2023/11/22 08:36:00;;;;;;;8.65;6.90;;;3.00;99.90;;;;;;5057756;28;20045;-67
2023/11/22 08:38:27;;;;;;;9.32;6.30;;;3.00;99.90;;;;;;5056937;28;20041;-66
2023/11/22 08:41:05;;;;;;;9.07;6.40;;;3.00;99.90;;;;;;5054879;28;20505;-67
2023/11/22 08:43:37;;;;;;;11.07;7.40;;;3.10;99.90;;;;;;5055177;28;20045;-67
2023/11/22 08:46:04;;;;;;;8.88;6.15;;;3.00;99.90;;;;;;5056659;28;20039;-67
2023/11/22 08:48:36;;;;;;;8.60;5.53;;;2.90;99.90;;;;;;5049726;28;20033;-67
2023/11/22 08:51:09;;;;;;;10.88;6.88;;;2.90;99.90;;;;;;5047564;28;20036;-67
2023/11/22 08:53:36;;;;;;;11.02;7.30;;;2.90;99.90;;;;;;5049472;28;20676;-67
2023/11/22 08:56:05;;;;;;;11.70;5.68;;;2.90;99.90;;;;;;5054372;28;20112;-67
2023/11/22 08:58:39;;;;;;;9.38;5.72;;;2.90;99.90;;;;;;5050849;28;20073;-67
2023/11/22 09:01:07;;;;;;;8.02;6.28;;;2.90;99.90;;;;;;5054294;28;20040;-67
2023/11/22 09:03:34;;;;;;;7.57;5.53;;;3.00;99.90;;;;;;5050950;28;20041;-67
2023/11/22 09:06:07;;;;;;;39.67;16.17;;;3.00;99.90;;;;;;5057088;28;20028;-67
2023/11/22 09:08:39;;;;;;;112.68;45.58;;;2.90;99.90;;;;;;5054101;28;20041;-66
2023/11/22 09:11:11;;;;;;;330.27;140.95;;;2.90;99.90;;;;;;5060518;28;20040;-67
2023/11/22 09:13:43;;;;;;;22.02;13.25;;;2.90;99.90;;;;;;5057357;28;20065;-67
2023/11/22 09:16:16;;;;;;;14.57;11.25;;;2.90;99.90;;;;;;5050432;28;20051;-67
2023/11/22 09:18:48;;;;;;;20.15;15.23;;;2.90;99.90;;;;;;5047404;28;20056;-67
2023/11/22 09:21:21;;;;;;;22.60;14.77;;;2.90;99.90;;;;;;5054450;28;20151;-65
2023/11/22 09:23:52;;;;;;;8.68;6.30;;;2.90;99.90;;;;;;5059676;28;20041;-67
2023/11/22 09:26:19;;;;;;;17.35;12.60;;;2.90;99.90;;;;;;5047891;28;20631;-67
2023/11/22 09:28:46;;;;;;;9.63;6.35;;;2.90;99.90;;;;;;5051494;28;20040;-67
2023/11/22 09:31:20;;;;;;;10.77;6.28;;;2.90;99.90;;;;;;5056431;28;20039;-66
2023/11/22 09:33:52;;;;;;;;;;;2.90;99.90;;;;;;5056686;28;20040;-67
2023/11/22 09:36:27;;;;;;;6.63;5.07;;;2.80;99.90;;;;;;5059959;28;20015;-67
2023/11/22 09:38:54;;;;;;;11.63;5.35;;;2.90;99.90;;;;;;5044364;28;20049;-67
2023/11/22 09:41:27;;;;;;;6.60;5.13;;;2.90;99.90;;;;;;5055491;28;20061;-67
2023/11/22 09:43:54;;;;;;;6.72;5.63;;;2.80;99.90;;;;;;5056870;28;20068;-67
2023/11/22 09:46:23;;;;;;;9.95;6.82;;;2.80;99.90;;;;;;5056482;28;20037;-67
2023/11/22 09:48:57;;;;;;;7.60;5.55;;;2.90;99.90;;;;;;5058376;28;20115;-67
2023/11/22 09:51:32;;;;;;;6.60;5.10;;;2.90;99.90;;;;;;5049822;28;20500;-67
2023/11/22 09:54:07;;;;;;;9.05;5.72;;;2.90;99.90;;;;;;5047571;28;20040;-67
2023/11/22 09:56:38;;;;;;;7.75;5.65;;;2.90;99.90;;;;;;5051846;28;20133;-67
2023/11/22 09:59:15;;;;;;;7.80;5.25;;;2.90;99.90;;;;;;5053326;28;20067;-67
2023/11/22 10:01:47;;;;;;;6.70;5.03;;;2.90;99.90;;;;;;5049672;28;20427;-68
2023/11/22 10:04:18;;;;;;;7.43;5.30;;;2.90;99.90;;;;;;5052524;28;20056;-66
2023/11/22 10:06:51;;;;;;;6.75;4.75;;;2.90;99.90;;;;;;5055589;28;20043;-66
2023/11/22 10:09:24;;;;;;;8.07;5.68;;;3.00;99.90;;;;;;5046531;28;20049;-66
2023/11/22 10:12:01;;;;;;;7.25;5.57;;;3.00;99.90;;;;;;5056122;28;20029;-67
2023/11/22 10:14:34;;;;;;;10.10;5.78;;;3.00;99.90;;;;;;5049717;28;20045;-67
2023/11/22 10:17:06;;;;;;;7.47;5.47;;;3.00;99.90;;;;;;5054969;28;20113;-65
2023/11/22 10:19:33;;;;;;;7.50;5.78;;;3.00;99.90;;;;;;5043376;28;20137;-67
2023/11/22 10:22:05;;;;;;;7.50;5.18;;;3.00;99.90;;;;;;5044610;28;20051;-67
2023/11/22 10:24:37;;;;;;;7.32;5.07;;;3.00;99.90;;;;;;5037279;28;20052;-67
2023/11/22 10:27:10;;;;;;;8.60;5.45;;;3.00;99.90;;;;;;5041363;28;20047;-67
2023/11/22 10:29:39;;;;;;;6.88;4.97;;;3.00;99.90;;;;;;5044886;28;20168;-67
2023/11/22 10:32:12;;;;;;;;;;;3.10;99.90;;;;;;5060034;28;20463;-67
2023/11/22 10:34:44;;;;;;;6.05;4.82;;;3.10;99.90;;;;;;5049896;28;19960;-67
2023/11/22 10:37:11;;;;;;;8.13;5.68;;;3.10;99.90;;;;;;5047724;28;20124;-66
2023/11/22 10:39:50;;;;;;;30.48;19.80;;;3.00;99.90;;;;;;5055092;28;20041;-67
2023/11/22 10:42:17;;;;;;;12.48;7.95;;;3.00;99.90;;;;;;5049689;28;20045;-67
2023/11/22 10:44:50;;;;;;;7.82;4.82;;;3.00;99.90;;;;;;5049373;28;20452;-67
2023/11/22 10:47:23;;;;;;;6.10;4.35;;;3.00;99.90;;;;;;5045530;28;20056;-67
2023/11/22 10:49:56;;;;;;;7.55;4.88;;;3.00;99.90;;;;;;5045438;28;20037;-67
2023/11/22 10:52:30;;;;;;;7.63;4.90;;;3.00;99.90;;;;;;5044855;28;20126;-67
2023/11/22 10:55:04;;;;;;;5.53;4.10;;;3.00;99.90;;;;;;5048005;28;20041;-67
2023/11/22 10:57:51;;;;;;;6.32;4.82;;;3.00;99.90;;;;;;5048992;28;20045;-67
2023/11/22 11:00:27;;;;;;;5.93;5.00;;;3.10;99.90;;;;;;5052329;28;20052;-67
2023/11/22 11:03:04;;;;;;;6.47;4.28;;;3.10;99.90;;;;;;5046478;28;20494;-67
2023/11/22 11:05:41;;;;;;;6.60;3.72;;;3.20;99.90;;;;;;5058293;28;20041;-67
2023/11/22 11:08:17;;;;;;;5.35;3.83;;;3.10;99.90;;;;;;5057666;28;20052;-67
2023/11/22 11:10:49;;;;;;;5.40;4.45;;;3.20;99.90;;;;;;5058173;28;20409;-67
2023/11/22 11:13:23;;;;;;;6.53;4.38;;;3.20;99.90;;;;;;5061995;28;20424;-67
2023/11/22 11:15:55;;;;;;;4.93;3.78;;;3.20;99.90;;;;;;5055063;28;20044;-67
2023/11/22 11:18:24;;;;;;;12.18;6.28;;;3.30;99.90;;;;;;5060059;28;20060;-67
2023/11/22 11:20:58;;;;;;;7.78;4.85;;;3.30;99.90;;;;;;5056633;28;20765;-67
2023/11/22 11:23:31;;;;;;;5.68;4.13;;;3.30;99.90;;;;;;5055074;28;20412;-67
2023/11/22 11:26:21;;;;;;;5.97;4.20;;;3.30;99.90;;;;;;5047383;28;20486;-67
2023/11/22 11:28:51;;;;;;;5.50;3.90;;;3.30;99.90;;;;;;5043792;28;20504;-67
2023/11/22 11:31:23;;;;;;;4.88;3.95;;;3.30;99.90;;;;;;5039437;28;20520;-67
2023/11/22 11:33:57;;;;;;;6.97;4.50;;;3.40;99.90;;;;;;5054546;28;20516;-67
2023/11/22 11:36:33;;;;;;;22.75;5.22;;;3.40;99.90;;;;;;5053572;28;20056;-66
2023/11/22 11:39:14;;;;;;;6.45;4.90;;;3.40;99.90;;;;;;5044534;28;20041;-67
2023/11/22 11:41:47;;;;;;;8.23;4.65;;;3.40;99.90;;;;;;5072345;28;20416;-67
2023/11/22 11:44:19;;;;;;;7.97;4.32;;;3.40;99.90;;;;;;5060119;28;20421;-67
2023/11/22 11:46:51;;;;;;;6.10;4.28;;;3.40;99.90;;;;;;5059011;28;20033;-67
2023/11/22 11:49:18;;;;;;;6.38;4.45;;;3.40;99.90;;;;;;5060331;28;20041;-68
2023/11/22 11:51:45;;;;;;;6.10;4.03;;;3.40;99.90;;;;;;5053589;28;20099;-67
2023/11/22 11:54:17;;;;;;;4.90;3.90;;;3.40;99.90;;;;;;5078184;28;20123;-67
2023/11/22 11:56:54;;;;;;;5.05;4.10;;;3.40;99.90;;;;;;5053730;28;20044;-67
2023/11/22 11:59:22;;;;;;;6.53;4.55;;;3.50;99.90;;;;;;5046833;28;20084;-67
2023/11/22 12:01:58;;;;;;;6.05;3.85;;;3.50;99.90;;;;;;5049924;28;20041;-68
2023/11/22 12:04:32;;;;;;;5.57;4.43;;;3.50;99.90;;;;;;5054329;28;20044;-67
2023/11/22 12:06:59;;;;;;;6.22;4.32;;;3.40;99.90;;;;;;5058386;28;20095;-67
2023/11/22 12:09:30;;;;;;;6.28;4.45;;;3.50;99.90;;;;;;5034652;28;20567;-67
2023/11/22 12:12:03;;;;;;;6.05;4.40;;;3.50;99.90;;;;;;5042018;28;20044;-67
2023/11/22 12:14:35;;;;;;;6.03;4.38;;;3.50;99.90;;;;;;5050771;28;20052;-72
2023/11/22 12:17:08;;;;;;;6.68;4.57;;;3.40;99.90;;;;;;5051606;28;20067;-68
2023/11/22 12:19:40;;;;;;;6.35;4.20;;;3.40;99.90;;;;;;5052530;28;20048;-67
2023/11/22 12:22:07;;;;;;;6.82;4.85;;;3.40;99.90;;;;;;5074924;28;20048;-67
2023/11/22 12:24:40;;;;;;;9.50;4.68;;;3.50;99.90;;;;;;5050996;28;20103;-67
2023/11/22 12:27:12;;;;;;;5.82;3.88;;;3.50;99.90;;;;;;5047295;28;20043;-67
2023/11/22 12:29:46;;;;;;;7.03;4.78;;;3.50;99.90;;;;;;5051130;28;20060;-67
2023/11/22 12:32:16;;;;;;;7.18;4.13;;;3.50;99.90;;;;;;5053253;28;20043;-67
2023/11/22 12:34:52;;;;;;;5.07;3.80;;;3.50;99.90;;;;;;5053017;28;20047;-67
2023/11/22 12:37:24;;;;;;;6.80;4.47;;;3.50;99.90;;;;;;5051975;28;20113;-67
2023/11/22 12:39:56;;;;;;;5.63;4.28;;;3.50;99.90;;;;;;5054990;28;20041;-67
2023/11/22 12:42:23;;;;;;;5.53;4.18;;;3.50;99.90;;;;;;5059082;28;20051;-68
2023/11/22 12:44:55;;;;;;;7.70;4.75;;;3.50;99.90;;;;;;5040642;28;20525;-67
2023/11/22 12:47:37;;;;;;;6.97;4.38;;;3.50;99.90;;;;;;5056270;28;20048;-67
2023/11/22 12:50:30;;;;;;;5.78;4.10;;;3.50;99.90;;;;;;5054739;28;20041;-68
2023/11/22 12:53:12;;;;;;;5.60;4.30;;;3.50;99.90;;;;;;5050457;28;20048;-67
2023/11/22 12:55:46;;;;;;;5.22;3.70;;;3.50;99.90;;;;;;5048539;28;20292;-67
2023/11/22 12:58:27;;;;;;;5.28;3.83;;;3.50;99.90;;;;;;5039955;28;20044;-68
2023/11/22 13:00:57;;;;;;;6.45;4.35;;;3.50;99.90;;;;;;5043430;28;20059;-67
2023/11/22 13:03:25;;;;;;;5.10;3.80;;;3.50;99.90;;;;;;5049681;28;20052;-67
2023/11/22 13:05:57;;;;;;;6.45;3.80;;;3.50;99.90;;;;;;5055055;28;20033;-68
2023/11/22 13:08:29;;;;;;;5.53;3.85;;;3.50;99.90;;;;;;5060952;28;20037;-67
2023/11/22 13:11:01;;;;;;;5.78;4.38;;;3.50;99.90;;;;;;5050540;28;20040;-68
2023/11/22 13:13:35;;;;;;;4.97;3.55;;;3.50;99.90;;;;;;5058250;28;20047;-68
2023/11/22 13:16:03;;;;;;;4.97;3.80;;;3.40;99.90;;;;;;5053753;28;20054;-67